Time;durP1;ratioP1;P1;durP2;ratioP2;P2;SDS_P1;SDS_P2;PMS_P1;PMS_P2;Temp;Humidity;BMP_temperature;BMP_pressure;BME280_temperature;BME280_humidity;BME280_pressure;Samples;Min_cycle;Max_cycle;Signal;HPM_P1;HPM_P2
2022/07/25 00:01:12;;;;;;;10.63;9.73;;;;;;;18.96;100.00;99495.28;5071367;28;20242;-77
2022/07/25 00:03:39;;;;;;;9.80;9.00;;;;;;;18.94;100.00;99490.16;5059941;28;20287;-78
2022/07/25 00:06:08;;;;;;;10.27;9.43;;;;;;;18.96;100.00;99495.28;5062239;28;20222;-79
2022/07/25 00:08:43;;;;;;;11.07;10.07;;;;;;;18.93;100.00;99493.94;5058250;28;20257;-79
2022/07/25 00:11:09;;;;;;;11.53;10.50;;;;;;;18.91;100.00;99491.50;5065737;28;20588;-78
2022/07/25 00:13:36;;;;;;;11.73;10.80;;;;;;;18.90;100.00;99491.75;5054851;28;20252;-78
2022/07/25 00:16:03;;;;;;;11.33;10.43;;;;;;;18.90;100.00;99489.06;5063817;28;20234;-79
2022/07/25 00:18:30;;;;;;;11.10;10.20;;;;;;;18.88;100.00;99492.06;5065006;28;20232;-78
2022/07/25 00:20:56;;;;;;;11.37;10.47;;;;;;;18.85;100.00;99489.06;5060584;28;20335;-78
2022/07/25 00:23:23;;;;;;;12.07;10.97;;;;;;;18.82;100.00;99493.16;5055112;28;20235;-79
2022/07/25 00:25:49;;;;;;;12.10;11.10;;;;;;;18.78;100.00;99496.69;5056626;28;20244;-80
2022/07/25 00:28:16;;;;;;;11.87;10.87;;;;;;;18.71;100.00;99488.06;5065161;28;20322;-80
2022/07/25 00:30:43;;;;;;;12.73;11.67;;;;;;;18.68;100.00;99485.88;5063394;28;20253;-79
2022/07/25 00:33:10;;;;;;;12.60;11.50;;;;;;;18.62;100.00;99487.78;5064887;28;20230;-79
2022/07/25 00:35:36;;;;;;;12.70;11.50;;;;;;;18.56;100.00;99485.38;5062556;28;20234;-79
2022/07/25 00:38:03;;;;;;;12.70;11.60;;;;;;;18.52;100.00;99485.09;5062420;28;20304;-78
2022/07/25 00:40:29;;;;;;;12.17;11.23;;;;;;;18.46;100.00;99472.63;5060327;28;20316;-78
2022/07/25 00:42:56;;;;;;;12.50;11.50;;;;;;;18.45;100.00;99476.41;5061424;28;20314;-77
2022/07/25 00:45:23;;;;;;;12.97;11.70;;;;;;;18.41;100.00;99478.06;5065262;28;20257;-78
2022/07/25 00:47:49;;;;;;;12.80;11.80;;;;;;;18.38;100.00;99471.25;5060160;28;20224;-79
2022/07/25 00:50:16;;;;;;;13.17;12.07;;;;;;;18.40;100.00;99473.69;5059079;28;20246;-78
2022/07/25 00:52:43;;;;;;;12.73;11.73;;;;;;;18.41;100.00;99475.34;5062936;28;20806;-78
2022/07/25 00:55:11;;;;;;;12.40;11.50;;;;;;;18.37;100.00;99477.78;5064310;28;20711;-78
2022/07/25 00:57:38;;;;;;;12.60;11.60;;;;;;;18.33;100.00;99474.00;5057738;28;20242;-77
2022/07/25 01:00:06;;;;;;;12.30;11.30;;;;;;;18.30;100.00;99484.56;5058634;28;20691;-77
2022/07/25 01:02:33;;;;;;;12.73;11.70;;;;;;;18.26;100.00;99481.59;5060997;28;20230;-78
2022/07/25 01:05:00;;;;;;;12.40;11.40;;;;;;;18.23;100.00;99484.84;5058347;28;20244;-79
2022/07/25 01:07:27;;;;;;;12.87;11.83;;;;;;;18.19;100.00;99483.78;5061311;28;20223;-77
2022/07/25 01:09:53;;;;;;;13.10;12.07;;;;;;;18.15;100.00;99488.09;5053558;28;20323;-78
2022/07/25 01:12:20;;;;;;;13.10;12.00;;;;;;;18.09;100.00;99483.78;5059398;28;20236;-78
2022/07/25 01:14:46;;;;;;;13.40;12.30;;;;;;;18.10;100.00;99477.28;5057809;28;20722;-78
2022/07/25 01:17:13;;;;;;;14.00;12.70;;;;;;;18.07;100.00;99472.38;5054539;28;20239;-77
2022/07/25 01:19:40;;;;;;;13.87;12.77;;;;;;;18.01;100.00;99468.88;5058228;28;20725;-77
2022/07/25 01:22:07;;;;;;;14.17;12.87;;;;;;;17.98;100.00;99465.88;5057118;28;20229;-78
2022/07/25 01:24:34;;;;;;;14.07;12.97;;;;;;;17.95;100.00;99466.44;5058072;28;20240;-79
2022/07/25 01:27:02;;;;;;;14.17;13.13;;;;;;;17.94;100.00;99462.09;5057816;28;20231;-79
2022/07/25 01:29:28;;;;;;;14.87;13.67;;;;;;;17.94;100.00;99468.34;5057857;28;20235;-79
2022/07/25 01:31:55;;;;;;;15.13;13.73;;;;;;;17.91;100.00;99458.03;5057822;28;20224;-77
2022/07/25 01:34:21;;;;;;;14.47;13.27;;;;;;;17.89;100.00;99454.78;5060232;28;20237;-78
2022/07/25 01:36:48;;;;;;;15.87;14.57;;;;;;;17.88;100.00;99442.31;5057557;28;20931;-79
2022/07/25 01:39:15;;;;;;;14.80;13.60;;;;;;;17.89;100.00;99445.84;5059692;28;20239;-79
2022/07/25 01:41:41;;;;;;;15.50;14.23;;;;;;;17.87;100.00;99445.31;5058339;28;20355;-79
2022/07/25 01:44:08;;;;;;;14.53;13.33;;;;;;;17.86;100.00;99444.50;5058214;28;20233;-79
2022/07/25 01:46:35;;;;;;;14.60;13.50;;;;;;;17.85;100.00;99442.88;5058091;28;20259;-78
2022/07/25 01:49:02;;;;;;;15.67;14.30;;;;;;;17.81;100.00;99444.50;5057988;28;20278;-79
2022/07/25 01:51:29;;;;;;;15.53;14.17;;;;;;;17.78;100.00;99444.19;5053025;28;20241;-77
2022/07/25 01:53:55;;;;;;;14.77;13.60;;;;;;;17.72;100.00;99442.59;5053820;28;20236;-77
2022/07/25 01:56:22;;;;;;;14.73;13.53;;;;;;;17.68;100.00;99446.94;5051334;28;20314;-77
2022/07/25 01:58:49;;;;;;;14.63;13.43;;;;;;;17.60;100.00;99438.25;5053646;28;20665;-78
2022/07/25 02:01:16;;;;;;;15.10;13.90;;;;;;;17.62;100.00;99434.47;5055129;28;20344;-78
2022/07/25 02:03:44;;;;;;;15.33;14.17;;;;;;;17.59;100.00;99433.91;5056359;28;20231;-78
2022/07/25 02:06:11;;;;;;;15.20;14.00;;;;;;;17.55;100.00;99429.25;5053029;28;21312;-79
2022/07/25 02:08:37;;;;;;;14.80;13.60;;;;;;;17.54;100.00;99430.38;5055849;28;20927;-78
2022/07/25 02:11:04;;;;;;;13.93;12.83;;;;;;;17.50;100.00;99426.53;5054506;28;20241;-77
2022/07/25 02:13:31;;;;;;;13.67;12.67;;;;;;;17.46;100.00;99422.75;5054311;28;20712;-78
2022/07/25 02:15:58;;;;;;;14.20;12.97;;;;;;;17.41;100.00;99426.28;5054829;28;20236;-78
2022/07/25 02:18:24;;;;;;;14.67;13.47;;;;;;;17.37;100.00;99432.50;5052883;28;20307;-78
2022/07/25 02:20:51;;;;;;;13.77;12.67;;;;;;;17.34;100.00;99428.44;5054509;28;20318;-77
2022/07/25 02:23:18;;;;;;;13.33;12.20;;;;;;;17.34;100.00;99430.34;5053258;28;20325;-77
2022/07/25 02:25:44;;;;;;;13.63;12.57;;;;;;;17.27;100.00;99429.75;5054061;28;20228;-77
2022/07/25 02:28:11;;;;;;;14.23;13.10;;;;;;;17.26;100.00;99430.88;5054113;28;20319;-78
2022/07/25 02:30:38;;;;;;;13.83;12.67;;;;;;;17.18;100.00;99434.88;5056794;28;20289;-76
2022/07/25 02:33:05;;;;;;;14.20;13.00;;;;;;;17.12;100.00;99428.63;5058628;28;20237;-77
2022/07/25 02:35:31;;;;;;;13.37;12.27;;;;;;;17.09;100.00;99426.47;5060338;28;20233;-77
2022/07/25 02:37:58;;;;;;;13.23;12.17;;;;;;;17.00;100.00;99430.78;5057545;28;20320;-77
2022/07/25 02:40:25;;;;;;;14.07;12.90;;;;;;;16.97;100.00;99428.63;5057670;28;20236;-77
2022/07/25 02:42:51;;;;;;;13.50;12.40;;;;;;;16.96;100.00;99442.41;5055546;28;20312;-77
2022/07/25 02:45:18;;;;;;;13.40;12.40;;;;;;;16.93;100.00;99443.78;5058518;28;20723;-77
2022/07/25 02:47:45;;;;;;;13.53;12.53;;;;;;;16.92;100.00;99441.31;5055264;28;20298;-77
2022/07/25 02:50:11;;;;;;;13.60;12.40;;;;;;;16.89;100.00;99439.94;5055227;28;20245;-77
2022/07/25 02:52:40;;;;;;;13.07;11.97;;;;;;;16.87;100.00;99438.59;5056524;28;20245;-78
2022/07/25 02:55:08;;;;;;;13.57;12.37;;;;;;;16.85;100.00;99441.56;5055502;28;20247;-76
2022/07/25 02:57:35;;;;;;;13.90;12.80;;;;;;;16.82;100.00;99435.88;5056525;28;20789;-78
2022/07/25 03:00:04;;;;;;;12.80;11.80;;;;;;;16.81;100.00;99432.34;5055258;28;20705;-77
2022/07/25 03:02:31;;;;;;;13.70;12.60;;;;;;;16.80;100.00;99429.91;5054268;28;20252;-78
2022/07/25 03:04:58;;;;;;;14.20;12.90;;;;;;;16.76;100.00;99439.63;5055948;28;20755;-77
2022/07/25 03:07:24;;;;;;;13.27;12.27;;;;;;;16.71;100.00;99435.00;5055436;28;20239;-77
2022/07/25 03:09:51;;;;;;;13.50;12.40;;;;;;;16.71;100.00;99440.41;5055968;28;20308;-78
2022/07/25 03:12:17;;;;;;;13.60;12.40;;;;;;;16.67;100.00;99442.84;5054808;28;20225;-78
2022/07/25 03:14:44;;;;;;;13.00;12.00;;;;;;;16.64;100.00;99437.16;5054706;28;20756;-77
2022/07/25 03:17:11;;;;;;;13.43;12.43;;;;;;;16.63;100.00;99430.09;5055133;28;20226;-77
2022/07/25 03:19:37;;;;;;;12.97;11.97;;;;;;;16.63;100.00;99427.41;5055883;28;20785;-78
2022/07/25 03:22:04;;;;;;;14.20;13.07;;;;;;;16.62;100.00;99426.59;5061644;28;20321;-78
2022/07/25 03:24:31;;;;;;;13.83;12.73;;;;;;;16.58;100.00;99422.78;5054826;28;20319;-77
2022/07/25 03:26:57;;;;;;;14.10;12.90;;;;;;;16.51;100.00;99424.91;5055687;28;20251;-77
2022/07/25 03:29:24;;;;;;;14.47;13.20;;;;;;;16.56;100.00;99432.22;5052176;28;20233;-77
2022/07/25 03:31:51;;;;;;;14.30;13.10;;;;;;;16.58;100.00;99432.78;5054315;28;20235;-77
2022/07/25 03:34:17;;;;;;;13.83;12.63;;;;;;;16.56;100.00;99426.81;5054506;28;20708;-78
2022/07/25 03:36:44;;;;;;;13.97;12.77;;;;;;;16.59;100.00;99426.31;5055715;28;20227;-77
2022/07/25 03:39:11;;;;;;;14.63;13.33;;;;;;;16.62;100.00;99433.88;5053424;28;20222;-77
2022/07/25 03:41:38;;;;;;;13.77;12.63;;;;;;;16.57;100.00;99425.72;5054297;28;20325;-77
2022/07/25 03:44:04;;;;;;;14.80;13.60;;;;;;;16.58;100.00;99427.38;5054050;28;20263;-78
2022/07/25 03:46:31;;;;;;;14.50;13.30;;;;;;;16.61;100.00;99430.34;5055893;28;20225;-78
2022/07/25 03:48:58;;;;;;;14.53;13.23;;;;;;;16.66;100.00;99437.69;5070300;28;20581;-77
2022/07/25 03:51:24;;;;;;;14.40;13.20;;;;;;;16.71;100.00;99427.69;5065845;28;20779;-78
2022/07/25 03:54:00;;;;;;;15.40;13.90;;;;;;;16.78;100.00;99429.34;5070629;28;20236;-78
2022/07/25 03:56:28;;;;;;;14.57;13.37;;;;;;;16.83;100.00;99429.38;5070131;28;20596;-77
2022/07/25 03:58:55;;;;;;;13.80;12.70;;;;;;;16.88;100.00;99432.94;5069786;28;20256;-77
2022/07/25 04:01:22;;;;;;;14.37;13.17;;;;;;;16.91;100.00;99435.09;5064552;28;20221;-78
2022/07/25 04:03:52;;;;;;;14.40;13.10;;;;;;;17.05;100.00;99438.09;5069040;28;20241;-78
2022/07/25 04:06:18;;;;;;;14.63;13.33;;;;;;;17.76;100.00;99441.78;5057728;28;20321;-77
2022/07/25 04:08:45;;;;;;;14.53;13.33;;;;;;;19.02;100.00;99462.41;5045627;28;20652;-78
2022/07/25 04:11:12;;;;;;;14.40;13.20;;;;;;;20.23;100.00;99480.63;5051403;28;20236;-78
2022/07/25 04:13:38;;;;;;;13.07;11.87;;;;;;;21.32;100.00;99502.56;5050665;28;20235;-78
2022/07/25 04:16:05;;;;;;;12.90;11.90;;;;;;;22.40;100.00;99533.41;5050822;28;20236;-77
2022/07/25 04:18:37;;;;;;;13.00;11.90;;;;;;;23.15;98.12;99549.50;5049568;28;20370;-78
2022/07/25 04:21:05;;;;;;;13.13;11.93;;;;;;;23.71;89.99;99442.47;5047028;28;20294;-77
2022/07/25 04:23:34;;;;;;;13.60;12.50;;;;;;;23.56;89.65;99423.72;5046618;28;20346;-78
2022/07/25 04:26:01;;;;;;;13.00;11.90;;;;;;;23.28;89.83;99422.97;5053018;28;20228;-73
2022/07/25 04:28:28;;;;;;;13.00;11.70;;;;;;;22.85;94.94;99421.72;5052629;28;20789;-77
2022/07/25 04:30:55;;;;;;;13.57;12.40;;;;;;;22.29;100.00;99422.81;5051983;28;20588;-77
2022/07/25 04:33:22;;;;;;;12.60;11.63;;;;;;;21.84;100.00;99419.72;5051064;28;20232;-76
2022/07/25 04:35:49;;;;;;;13.73;12.53;;;;;;;21.42;100.00;99417.13;5053529;28;20232;-76
2022/07/25 04:38:16;;;;;;;12.40;11.47;;;;;;;21.14;100.00;99424.34;5053571;28;20233;-80
2022/07/25 04:40:43;;;;;;;13.47;12.27;;;;;;;20.93;100.00;99417.53;5049728;28;20232;-77
2022/07/25 04:43:10;;;;;;;13.40;12.17;;;;;;;20.76;100.00;99407.16;5042358;28;20235;-77
2022/07/25 04:45:36;;;;;;;13.20;11.90;;;;;;;20.62;100.00;99412.47;5061018;28;20323;-80
2022/07/25 04:48:03;;;;;;;13.77;12.63;;;;;;;20.66;100.00;99412.72;5039768;28;20245;-82
2022/07/25 04:50:30;;;;;;;13.43;12.00;;;;;;;20.73;100.00;99404.19;5051286;28;20358;-82
2022/07/25 04:52:57;;;;;;;12.93;11.93;;;;;;;20.76;100.00;99404.44;5063971;28;20231;-83
2022/07/25 04:55:24;;;;;;;12.67;11.67;;;;;;;20.85;100.00;99410.03;5051930;28;20257;-81
2022/07/25 04:57:50;;;;;;;13.23;12.13;;;;;;;20.89;100.00;99411.88;5040566;28;20287;-82
2022/07/25 05:00:17;;;;;;;12.73;11.73;;;;;;;20.92;100.00;99408.56;5054667;28;20245;-81
2022/07/25 05:02:44;;;;;;;13.03;11.93;;;;;;;21.01;100.00;99411.44;5047685;28;20305;-80
2022/07/25 05:05:11;;;;;;;12.50;11.50;;;;;;;21.05;100.00;99407.84;5059933;28;20237;-81
2022/07/25 05:07:48;;;;;;;12.57;11.47;;;;;;;21.22;100.00;99403.84;5056011;28;20287;-81
2022/07/25 05:10:14;;;;;;;12.43;11.43;;;;;;;21.32;100.00;99400.97;5051235;28;20241;-81
2022/07/25 05:12:41;;;;;;;11.33;10.53;;;;;;;21.39;100.00;99409.56;5055935;28;20702;-81
2022/07/25 05:15:08;;;;;;;11.73;10.77;;;;;;;21.53;100.00;99396.81;5053542;28;20330;-82
2022/07/25 05:17:35;;;;;;;12.20;11.23;;;;;;;21.66;100.00;99401.50;5067605;28;20315;-80
2022/07/25 05:20:01;;;;;;;12.00;10.93;;;;;;;21.80;100.00;99399.63;5059821;28;20231;-80
2022/07/25 05:22:28;;;;;;;10.90;10.05;;;;;;;21.79;100.00;99403.44;5046984;28;20664;-80
2022/07/25 05:24:55;;;;;;;11.20;10.30;;;;;;;21.86;100.00;99400.34;5058646;28;20327;-80
2022/07/25 05:27:22;;;;;;;11.73;10.73;;;;;;;22.00;100.00;99403.16;5062160;28;20252;-80
2022/07/25 05:29:48;;;;;;;10.75;9.95;;;;;;;22.10;100.00;99387.41;5051185;28;20239;-80
2022/07/25 05:32:15;;;;;;;11.05;10.15;;;;;;;22.29;100.00;99387.34;5051823;28;20257;-80
2022/07/25 05:34:41;;;;;;;11.10;10.10;;;;;;;22.39;97.86;99389.88;5066833;28;20235;-81
2022/07/25 05:37:08;;;;;;;11.48;10.43;;;;;;;22.56;96.84;99391.97;5055553;28;20322;-81
2022/07/25 05:39:36;;;;;;;11.02;10.07;;;;;;;22.73;94.89;99387.53;5046428;28;20315;-80
2022/07/25 05:42:03;;;;;;;11.25;9.90;;;;;;;22.90;93.39;99384.19;5047451;28;20236;-79
2022/07/25 05:44:29;;;;;;;10.75;9.20;;;;;;;23.23;90.58;99398.50;5053298;28;20233;-80
2022/07/25 05:46:56;;;;;;;9.55;8.75;;;;;;;23.39;86.02;99390.72;5051470;28;20234;-80
2022/07/25 05:49:23;;;;;;;10.10;9.13;;;;;;;23.52;81.33;99381.69;5052389;28;20244;-80
2022/07/25 05:51:50;;;;;;;9.48;8.57;;;;;;;23.58;77.42;99378.53;5052556;28;20780;-81
2022/07/25 05:54:17;;;;;;;9.57;8.73;;;;;;;23.73;74.93;99382.00;5049086;28;20648;-80
2022/07/25 05:56:43;;;;;;;8.45;7.75;;;;;;;23.94;70.88;99378.44;5063378;28;20312;-80
2022/07/25 05:59:10;;;;;;;8.55;7.85;;;;;;;24.05;68.58;99374.31;5057606;28;20328;-81
2022/07/25 06:01:37;;;;;;;8.48;7.72;;;;;;;24.14;65.55;99379.81;5061641;28;20320;-80
2022/07/25 06:04:04;;;;;;;8.40;7.68;;;;;;;24.31;63.80;99373.66;5059306;28;20228;-80
2022/07/25 06:06:31;;;;;;;8.25;7.57;;;;;;;24.40;66.09;99369.03;5052842;28;20236;-81
2022/07/25 06:08:58;;;;;;;8.57;7.88;;;;;;;24.55;63.18;99377.59;5057496;28;20303;-79
2022/07/25 06:11:29;;;;;;;7.93;7.10;;;;;;;24.62;60.63;99368.94;5056656;28;20608;-79
2022/07/25 06:13:57;;;;;;;7.90;7.35;;;;;;;24.80;60.44;99361.56;5059833;28;20228;-80
2022/07/25 06:16:23;;;;;;;9.32;8.38;;;;;;;24.94;64.44;99371.28;5051134;28;20225;-80
2022/07/25 06:18:50;;;;;;;9.93;9.13;;;;;;;24.91;66.07;99368.38;5058033;28;20220;-79
2022/07/25 06:21:17;;;;;;;9.07;8.25;;;;;;;25.10;64.30;99365.34;5048332;28;20754;-80
2022/07/25 06:23:43;;;;;;;9.02;8.15;;;;;;;25.17;65.89;99368.41;5056787;28;20236;-81
2022/07/25 06:26:10;;;;;;;11.23;8.00;;;;;;;25.30;64.95;99361.94;5020623;28;20258;-80
2022/07/25 06:28:37;;;;;;;10.20;7.85;;;;;;;25.35;62.68;99359.84;5054730;28;20904;-82
2022/07/25 06:31:04;;;;;;;7.53;6.38;;;;;;;25.54;58.98;99350.47;5050177;28;20634;-80
2022/07/25 06:33:31;;;;;;;7.30;6.65;;;;;;;25.62;53.37;99353.22;5048421;28;20236;-80
2022/07/25 06:35:57;;;;;;;3.70;3.40;;;;;;;25.90;47.14;99339.94;5056436;28;20228;-81
2022/07/25 06:38:24;;;;;;;5.55;4.22;;;;;;;26.08;47.78;99340.72;5054591;28;20252;-81
2022/07/25 06:40:50;;;;;;;4.00;3.63;;;;;;;26.09;43.99;99343.09;5060479;28;20231;-80
2022/07/25 06:43:17;;;;;;;3.80;3.50;;;;;;;26.18;43.17;99332.06;5050186;28;20715;-80
2022/07/25 06:45:46;;;;;;;4.13;3.38;;;;;;;26.26;42.99;99334.84;5054082;28;20316;-80
2022/07/25 06:48:14;;;;;;;3.50;3.20;;;;;;;26.32;41.69;99335.44;5054378;28;20231;-80
2022/07/25 06:50:40;;;;;;;4.18;3.30;;;;;;;26.47;41.86;99329.41;5037430;28;20284;-80
2022/07/25 06:53:07;;;;;;;3.55;3.25;;;;;;;26.53;41.86;99319.84;5046190;28;20228;-80
2022/07/25 06:55:34;;;;;;;3.97;3.58;;;;;;;26.68;41.26;99324.75;5051045;28;20239;-80
2022/07/25 06:58:01;;;;;;;4.13;3.50;;;;;;;26.71;41.88;99312.28;5053115;28;20234;-77
2022/07/25 07:00:27;;;;;;;3.45;3.15;;;;;;;26.90;41.54;99320.09;5049979;28;20822;-80
2022/07/25 07:02:57;;;;;;;3.90;3.50;;;;;;;26.88;41.05;99314.13;5026645;28;20614;-82
2022/07/25 07:05:25;;;;;;;3.17;2.97;;;;;;;27.07;41.54;99314.47;5047193;28;20794;-80
2022/07/25 07:07:52;;;;;;;3.90;3.60;;;;;;;27.08;41.34;99305.88;5054584;28;20241;-82
2022/07/25 07:10:20;;;;;;;4.07;3.65;;;;;;;27.30;41.18;99312.16;5055851;28;20320;-80
2022/07/25 07:12:48;;;;;;;6.80;3.53;;;;;;;27.54;39.32;99299.31;5053709;28;20625;-81
2022/07/25 07:15:15;;;;;;;5.35;3.58;;;;;;;27.56;39.26;99299.00;5053785;28;20227;-81
2022/07/25 07:17:42;;;;;;;5.80;3.72;;;;;;;27.47;40.26;99293.56;5025538;28;20328;-81
2022/07/25 07:20:09;;;;;;;5.05;4.13;;;;;;;27.65;39.48;99296.97;5084907;28;20600;-80
2022/07/25 07:22:43;;;;;;;5.68;3.72;;;;;;;27.79;38.05;99291.94;5021955;28;20308;-81
2022/07/25 07:25:12;;;;;;;3.95;3.65;;;;;;;27.81;38.46;99299.88;5044907;28;20236;-81
2022/07/25 07:27:39;;;;;;;4.15;3.80;;;;;;;27.97;38.79;99295.28;5057394;28;20316;-82
2022/07/25 07:30:07;;;;;;;5.65;3.80;;;;;;;28.15;37.57;99293.94;5047426;28;20319;-80
2022/07/25 07:32:34;;;;;;;4.97;3.67;;;;;;;28.33;37.44;99289.81;5054483;28;20233;-81
2022/07/25 07:35:01;;;;;;;4.25;3.40;;;;;;;28.42;36.06;99284.97;5048636;28;20678;-80
2022/07/25 07:37:28;;;;;;;4.50;3.45;;;;;;;28.55;35.32;99291.31;5053124;28;20317;-81
2022/07/25 07:40:03;;;;;;;4.00;3.67;;;;;;;28.54;35.06;99280.63;5051128;28;20237;-80
2022/07/25 07:42:41;;;;;;;3.90;3.60;;;;;;;28.71;34.13;99281.19;5056457;28;20341;-79
2022/07/25 07:45:15;;;;;;;5.03;3.20;;;;;;;28.90;34.10;99272.28;5035414;28;20324;-80
2022/07/25 07:47:43;;;;;;;4.35;4.03;;;;;;;28.97;33.77;99271.72;5053794;28;20738;-80
2022/07/25 07:50:10;;;;;;;4.03;3.60;;;;;;;29.01;33.63;99270.66;5052474;28;20230;-79
2022/07/25 07:52:37;;;;;;;3.60;3.30;;;;;;;29.21;33.38;99266.88;5055159;28;20684;-80
2022/07/25 07:57:49;;;;;;;3.90;3.60;;;;;;;29.35;33.88;99263.75;5054644;28;20245;-79
2022/07/25 08:00:16;;;;;;;4.07;3.65;;;;;;;29.47;33.62;99260.94;5050706;28;20723;-80
2022/07/25 08:02:49;;;;;;;5.00;3.40;;;;;;;29.60;33.28;99254.19;5051152;28;20242;-79
2022/07/25 08:05:23;;;;;;;3.75;3.42;;;;;;;29.87;33.00;99248.94;5049621;28;20727;-80
2022/07/25 08:07:50;;;;;;;4.82;3.60;;;;;;;29.91;33.90;99249.88;5053458;28;20238;-81
2022/07/25 08:10:20;;;;;;;3.72;3.42;;;;;;;30.04;33.65;99237.56;5050440;28;20226;-80
2022/07/25 08:12:47;;;;;;;4.22;3.50;;;;;;;30.28;33.08;99240.13;5050993;28;20691;-80
2022/07/25 08:15:14;;;;;;;6.70;3.45;;;;;;;30.42;32.24;99228.59;5048833;28;20234;-80
2022/07/25 08:17:40;;;;;;;4.10;3.70;;;;;;;30.49;32.13;99232.31;5050871;28;20312;-81
2022/07/25 08:20:09;;;;;;;3.92;3.53;;;;;;;30.54;31.80;99226.53;5036657;28;20320;-81
2022/07/25 08:22:56;;;;;;;4.70;3.88;;;;;;;30.64;31.94;99221.59;5038562;28;20226;-81
2022/07/25 08:25:22;;;;;;;5.93;3.50;;;;;;;30.70;32.21;99226.47;5049561;28;20633;-82
2022/07/25 08:27:49;;;;;;;4.22;3.92;;;;;;;30.80;31.67;99217.56;5051469;28;20673;-81
2022/07/25 08:30:16;;;;;;;4.50;3.90;;;;;;;30.89;31.99;99220.91;5014857;28;20252;-81
2022/07/25 08:32:53;;;;;;;4.63;3.97;;;;;;;30.90;31.76;99225.28;5046953;28;20321;-81
2022/07/25 08:35:21;;;;;;;5.50;3.92;;;;;;;31.07;31.12;99215.00;5051094;28;20241;-81
2022/07/25 08:37:47;;;;;;;4.32;3.72;;;;;;;31.22;31.86;99214.06;5051293;28;20320;-81
2022/07/25 08:40:18;;;;;;;4.50;4.10;;;;;;;31.37;31.56;99213.97;5044359;28;20320;-80
2022/07/25 08:42:45;;;;;;;5.18;4.20;;;;;;;31.39;31.78;99210.84;5046361;28;20230;-80
2022/07/25 08:45:18;;;;;;;4.50;4.20;;;;;;;31.49;31.40;99204.72;5049711;28;20237;-81
2022/07/25 08:47:49;;;;;;;4.63;4.20;;;;;;;31.50;31.74;99202.75;5045121;28;20230;-81
2022/07/25 08:50:18;;;;;;;4.40;4.10;;;;;;;31.43;33.18;99195.91;5042979;28;20279;-81
2022/07/25 08:52:46;;;;;;;5.10;4.32;;;;;;;31.64;32.33;99200.22;5050898;28;20267;-81
2022/07/25 08:55:15;;;;;;;4.72;4.32;;;;;;;31.70;31.61;99198.75;5050357;28;20312;-81
2022/07/25 08:57:42;;;;;;;4.65;4.28;;;;;;;31.75;31.85;99196.50;5051118;28;20248;-82
2022/07/25 09:00:11;;;;;;;5.68;4.47;;;;;;;31.87;31.92;99187.16;5050131;28;20254;-81
2022/07/25 09:02:38;;;;;;;5.60;4.68;;;;;;;31.90;31.54;99183.66;5043752;28;20246;-81
2022/07/25 09:05:06;;;;;;;5.75;4.57;;;;;;;31.77;31.85;99194.16;5047277;28;20237;-81
2022/07/25 09:07:37;;;;;;;5.35;4.85;;;;;;;31.69;32.60;99194.38;5030699;28;20261;-81
2022/07/25 09:10:17;;;;;;;5.45;4.95;;;;;;;31.69;32.68;99183.31;5047900;28;20272;-80
2022/07/25 09:13:01;;;;;;;6.03;5.00;;;;;;;31.71;33.21;99178.22;5051410;28;20253;-81
2022/07/25 09:15:37;;;;;;;5.45;4.70;;;;;;;31.72;33.13;99183.41;5034005;28;20236;-81
2022/07/25 09:18:07;;;;;;;7.60;5.20;;;;;;;31.87;32.99;99173.31;5033270;28;20279;-81
2022/07/25 09:20:47;;;;;;;5.90;5.25;;;;;;;31.75;33.86;99179.06;5041013;28;20268;-81
2022/07/25 09:23:29;;;;;;;5.45;4.80;;;;;;;31.75;33.23;99181.84;5049651;28;20243;-81
2022/07/25 09:26:08;;;;;;;5.57;5.10;;;;;;;31.74;33.56;99169.16;5033168;28;20245;-81
2022/07/25 09:28:43;;;;;;;6.63;5.30;;;;;;;31.92;33.30;99166.69;5032887;28;20233;-81
2022/07/25 09:31:11;;;;;;;5.63;5.05;;;;;;;31.86;34.33;99157.88;5049468;28;20286;-81
2022/07/25 09:33:50;;;;;;;7.40;5.78;;;;;;;31.96;33.89;99153.69;5044155;28;20261;-82
2022/07/25 09:36:17;;;;;;;5.72;5.10;;;;;;;31.91;33.75;99149.25;5048931;28;20718;-81
2022/07/25 09:38:54;;;;;;;5.35;4.95;;;;;;;32.01;34.08;99158.91;5040963;28;20232;-82
2022/07/25 09:41:21;;;;;;;5.63;5.22;;;;;;;32.15;33.36;99148.06;5048312;28;20225;-82
2022/07/25 09:43:48;;;;;;;5.80;5.40;;;;;;;32.17;33.65;99140.97;5040983;28;20234;-81
2022/07/25 09:46:15;;;;;;;5.88;5.38;;;;;;;32.15;33.08;99139.75;5076250;28;20684;-83
2022/07/25 09:48:44;;;;;;;6.10;5.60;;;;;;;32.21;32.82;99138.22;5040091;28;20719;-81
2022/07/25 09:51:11;;;;;;;6.07;5.45;;;;;;;32.35;33.40;99130.09;5050385;28;20702;-82
2022/07/25 09:53:38;;;;;;;6.50;5.32;;;;;;;32.35;33.06;99130.09;5041980;28;20230;-83
2022/07/25 09:56:06;;;;;;;5.45;4.90;;;;;;;32.52;32.47;99131.53;5046542;28;20312;-83
2022/07/25 09:58:33;;;;;;;5.35;4.90;;;;;;;32.60;32.52;99127.66;5049560;28;20229;-83
2022/07/25 10:01:03;;;;;;;6.00;5.50;;;;;;;32.65;32.29;99122.59;5044574;28;20231;-82
2022/07/25 10:04:08;;;;;;;5.20;4.85;;;;;;;32.72;31.78;99119.88;5047340;28;20240;-83
2022/07/25 10:06:59;;;;;;;5.80;5.00;;;;;;;32.83;31.24;99122.78;5050206;28;20237;-82
2022/07/25 10:09:25;;;;;;;5.68;4.80;;;;;;;32.84;31.19;99120.81;5028521;28;20281;-82
2022/07/25 10:12:03;;;;;;;5.57;5.13;;;;;;;32.91;31.32;99107.81;5060333;28;20384;-83
2022/07/25 10:14:29;;;;;;;5.80;5.28;;;;;;;32.95;31.94;99105.06;5039684;28;20228;-82
2022/07/25 10:16:56;;;;;;;4.93;4.53;;;;;;;33.01;31.60;99109.91;5048873;28;20238;-83
2022/07/25 10:19:40;;;;;;;6.15;4.68;;;;;;;33.25;30.72;99100.25;5027803;28;20646;-81
2022/07/25 10:22:13;;;;;;;5.60;5.10;;;;;;;33.39;30.52;99107.91;5035082;28;20241;-81
2022/07/25 10:24:44;;;;;;;5.35;4.85;;;;;;;33.52;30.37;99109.19;5018883;28;20769;-81
2022/07/25 10:27:13;;;;;;;5.15;4.75;;;;;;;33.49;30.23;99087.75;5032738;28;20248;-81
2022/07/25 10:29:41;;;;;;;5.10;4.60;;;;;;;33.45;30.48;99095.25;5045575;28;20236;-80
2022/07/25 10:32:10;;;;;;;4.72;4.43;;;;;;;33.57;30.18;99083.84;5046056;28;20241;-81
2022/07/25 10:34:38;;;;;;;6.05;4.75;;;;;;;33.61;29.96;99087.44;5041650;28;20787;-80
2022/07/25 10:37:09;;;;;;;5.22;4.82;;;;;;;33.61;30.25;99084.66;5083533;28;20727;-82
2022/07/25 10:39:38;;;;;;;5.22;4.72;;;;;;;33.65;31.01;99063.25;5055450;28;20256;-81
2022/07/25 10:42:05;;;;;;;5.15;4.75;;;;;;;33.93;30.60;99069.00;5049983;28;20663;-82
2022/07/25 10:44:47;;;;;;;6.13;5.53;;;;;;;33.94;29.83;99067.03;5029573;28;20321;-80
2022/07/25 10:47:15;;;;;;;5.40;4.95;;;;;;;34.03;29.89;99057.16;5050961;28;20607;-81
2022/07/25 10:49:45;;;;;;;5.63;4.72;;;;;;;33.98;30.24;99054.75;5046314;28;20226;-81
2022/07/25 10:52:31;;;;;;;4.70;4.40;;;;;;;34.04;29.63;99055.19;5022697;28;20221;-82
2022/07/25 10:54:59;;;;;;;5.43;4.78;;;;;;;34.29;29.83;99047.78;5046595;28;20634;-80
2022/07/25 10:57:27;;;;;;;6.70;5.28;;;;;;;34.34;30.15;99063.28;5051127;28;20252;-81
2022/07/25 11:00:07;;;;;;;5.80;5.40;;;;;;;34.52;30.15;99050.25;5041263;28;20736;-81
2022/07/25 11:02:34;;;;;;;6.10;5.55;;;;;;;34.54;30.04;99045.06;5063991;28;20244;-81
2022/07/25 11:05:03;;;;;;;6.30;5.80;;;;;;;34.60;30.63;99042.69;5050234;28;20229;-84
2022/07/25 11:07:34;;;;;;;5.90;5.40;;;;;;;34.70;31.00;99039.97;5053733;28;20312;-81
2022/07/25 11:10:04;;;;;;;6.13;5.53;;;;;;;34.88;29.89;99038.00;5035979;28;20233;-81
2022/07/25 11:12:31;;;;;;;5.68;5.28;;;;;;;34.82;30.44;99028.47;5015289;28;20221;-82
2022/07/25 11:15:05;;;;;;;5.90;5.40;;;;;;;34.92;30.05;99027.69;5044126;28;20279;-81
2022/07/25 11:17:33;;;;;;;5.95;5.55;;;;;;;35.04;30.43;99022.94;5035514;28;20251;-81
2022/07/25 11:20:05;;;;;;;6.00;5.40;;;;;;;35.07;29.79;99017.34;5032973;28;20229;-80
2022/07/25 11:22:33;;;;;;;6.50;6.10;;;;;;;35.21;29.60;99022.94;5046363;28;20294;-81
2022/07/25 11:25:00;;;;;;;6.22;5.70;;;;;;;35.15;29.73;99004.22;5030455;28;20233;-80
2022/07/25 11:27:32;;;;;;;5.55;5.15;;;;;;;35.28;29.87;99009.00;5034845;28;20320;-81
2022/07/25 11:30:10;;;;;;;6.40;5.90;;;;;;;35.41;29.30;99009.41;5030645;28;20240;-81